TimePDT,TemperatureF,Dew PointF,Humidity,Sea Level PressureIn,VisibilityMPH,Wind Direction,Wind SpeedMPH,Gust SpeedMPH,PrecipitationIn,Events,Conditions,WindDirDegrees,DateUTC
12:54 AM,53.6,33.8,47,30.06,10.0,ENE,3.5,-,N/A,,Clear,70,2011-10-27 07:54:00
1:54 AM,50.0,34.0,54,30.10,10.0,ESE,4.6,-,N/A,,Clear,110,2011-10-27 08:54:00
2:54 AM,48.0,33.1,56,30.09,10.0,East,3.5,-,N/A,,Clear,100,2011-10-27 09:54:00
3:54 AM,46.9,33.1,59,30.09,10.0,Calm,Calm,-,N/A,,Clear,0,2011-10-27 10:54:00
4:54 AM,46.9,32.0,56,30.08,10.0,East,5.8,-,N/A,,Clear,90,2011-10-27 11:54:00
5:54 AM,46.0,30.9,56,30.09,10.0,East,4.6,-,N/A,,Clear,100,2011-10-27 12:54:00
6:54 AM,46.9,30.0,52,30.08,10.0,East,4.6,-,N/A,,Clear,90,2011-10-27 13:54:00
7:54 AM,48.0,28.9,48,30.08,10.0,East,8.1,-,N/A,,Clear,100,2011-10-27 14:54:00
8:54 AM,55.9,30.9,39,30.08,10.0,East,4.6,-,N/A,,Clear,100,2011-10-27 15:54:00
9:54 AM,60.1,35.1,39,30.09,10.0,West,3.5,-,N/A,,Clear,280,2011-10-27 16:54:00
10:54 AM,63.0,37.0,38,30.09,10.0,WSW,3.5,-,N/A,,Clear,250,2011-10-27 17:54:00
11:54 AM,64.9,37.9,37,30.08,10.0,WSW,6.9,-,N/A,,Clear,240,2011-10-27 18:54:00
12:54 PM,66.0,39.9,38,30.07,10.0,West,8.1,-,N/A,,Clear,280,2011-10-27 19:54:00
1:54 PM,64.0,34.0,33,30.07,10.0,NW,5.8,-,N/A,,Clear,310,2011-10-27 20:54:00
2:54 PM,64.9,42.1,43,30.06,10.0,NW,4.6,-,N/A,,Clear,320,2011-10-27 21:54:00
3:54 PM,64.9,45.0,48,30.05,10.0,WNW,4.6,-,N/A,,Clear,300,2011-10-27 22:54:00
4:54 PM,68.0,41.0,37,30.05,10.0,North,3.5,-,N/A,,Clear,360,2011-10-27 23:54:00
5:54 PM,64.4,39.2,40,30.01,10.0,Calm,Calm,-,N/A,,Clear,0,2011-10-28 00:54:00
6:54 PM,59.0,46.9,64,30.07,10.0,Calm,Calm,-,N/A,,Clear,0,2011-10-28 01:54:00
7:54 PM,55.9,41.0,57,30.07,10.0,Calm,Calm,-,N/A,,Clear,0,2011-10-28 02:54:00
8:54 PM,53.1,36.0,52,30.08,10.0,Calm,Calm,-,N/A,,Clear,0,2011-10-28 03:54:00
9:54 PM,51.1,36.0,56,30.08,10.0,East,4.6,-,N/A,,Clear,90,2011-10-28 04:54:00
10:54 PM,51.1,36.0,56,30.09,10.0,Calm,Calm,-,N/A,,Clear,0,2011-10-28 05:54:00
11:54 PM,51.1,36.0,56,30.09,10.0,Calm,Calm,-,N/A,,Clear,0,2011-10-28 06:54:00